Etusivu
METAR-TAF:

METAR-TAF

Lentoasemat :

Kunming Changshuin kansainvälinen lentoasema

Kunming, Kiina

Leveyspiiri: 25-01N, Pituuspiiri: 102-41E, korkeus merenpinnasta: 1892 m

Tämänhetkinen sää

Tämä raportti tehtiin 49 minuuttia sitten, kello 15.00 UTC
Tuuli 6 kn etelästä/lounaasta
Lämpötila 17°C
Kosteus 88%
Ilmanpaine 1017 hPa
Näkyvyys: 8000 m
Muutamia pilviä 4300 ft:n korkeudessa

METAR: ZPPP 231500Z 20003MPS 8000 FEW043 17/15 Q1017 NOSIG

Aika: 23:49 (15:49 UTC)

Sääennuste

Tämä raportti tehtiin 8 tuntia ja 44 minuuttia sitten, kello 07.05 UTC
Ennuste voimassa 23. päivästä klo 12 UTC - 24. päivään klo 12 UTC
Tuuli 8 kn idästä/koillisesta
Näkyvyys 10 km tai enemmän
Hajanaisia pilviä 2600 ft:n korkeudessa
Hajonneita pilviä 4000 ft:n korkeudessa

TAF: ZPPP 230705Z 2312/2412 06004MPS 9999 SCT026 BKN040 TX26/2408Z TN16/2323Z

Säähavainnot ja -ennusteet yli 4000 lentoasemalta (METAR- ja TAF-raportit).

Käytössä olevat sääasemat on merkitty karttaan keltaisilla ja punaisilla pisteillä.

Aseta hiiri pisteen päälle nähdäksesi sääaseman nimen.

Klikkaa sitten nähdäksesi säähavainnot ja -ennusteet.

Kartan vaihtaminen: klikkaa mustalla rastilla varustettuja vihreitä pisteitä, niin voit zoomata sisään; viivalla varustettua vihreää pistettä, niin voit zoomata ulos tai vihreitä nuolia, niin pääset viereisille kartoille.


METAR-TAF: